Time;durP1;ratioP1;P1;durP2;ratioP2;P2;SDS_P1;SDS_P2;PMS_P1;PMS_P2;Temp;Humidity;BMP_temperature;BMP_pressure;BME280_temperature;BME280_humidity;BME280_pressure;Samples;Min_cycle;Max_cycle;Signal;HPM_P1;HPM_P2
2024/02/27 00:03:09;;;;;;;6.20;3.13;;;;;;;-145.97;100.00;64257.31;10501204;28;20094;-68
2024/02/27 00:08:09;;;;;;;3.28;2.97;;;;;;;-145.97;100.00;64257.31;10502287;28;20039;-67
2024/02/27 00:13:10;;;;;;;8.55;3.72;;;;;;;-145.97;100.00;64257.31;10501780;28;20029;-68
2024/02/27 00:18:16;;;;;;;4.20;3.55;;;;;;;-145.97;100.00;64257.31;10498958;28;20043;-68
2024/02/27 00:23:16;;;;;;;3.40;3.20;;;;;;;-145.97;100.00;64257.31;10497611;28;20036;-68
2024/02/27 00:28:17;;;;;;;8.18;3.35;;;;;;;-145.97;100.00;64257.31;10496169;28;20033;-68
2024/02/27 00:33:17;;;;;;;3.17;2.97;;;;;;;-145.97;100.00;64257.31;10496050;28;20036;-68
2024/02/27 00:38:17;;;;;;;5.03;4.43;;;;;;;-145.97;100.00;64257.31;10498862;28;20032;-68
2024/02/27 00:43:18;;;;;;;5.30;3.70;;;;;;;-145.97;100.00;64257.31;10481697;28;20064;-68
2024/02/27 00:48:18;;;;;;;4.25;3.55;;;;;;;-145.97;100.00;64257.31;10498201;28;20036;-67
2024/02/27 00:53:21;;;;;;;5.80;3.45;;;;;;;-145.97;100.00;64257.31;10477541;28;20139;-68
2024/02/27 00:58:22;;;;;;;8.05;4.25;;;;;;;-145.97;100.00;64257.31;10495257;28;20090;-68
2024/02/27 01:03:23;;;;;;;5.00;4.47;;;;;;;-145.97;100.00;64257.31;10495165;28;20040;-68
2024/02/27 01:08:23;;;;;;;4.35;3.95;;;;;;;-145.97;100.00;64257.31;10495117;28;20036;-67
2024/02/27 01:13:24;;;;;;;5.22;3.80;;;;;;;-145.97;100.00;64257.31;10495459;28;20117;-67
2024/02/27 01:18:24;;;;;;;5.95;4.57;;;;;;;-145.97;100.00;64257.31;10496240;28;20116;-68
2024/02/27 01:23:24;;;;;;;5.80;3.33;;;;;;;-145.97;100.00;64257.31;10493837;28;20064;-68
2024/02/27 01:28:25;;;;;;;4.47;3.88;;;;;;;-145.97;100.00;64257.31;10494123;28;20032;-69
2024/02/27 01:33:25;;;;;;;4.70;4.30;;;;;;;-145.97;100.00;64257.31;10493589;28;20068;-68
2024/02/27 01:38:26;;;;;;;4.50;4.18;;;;;;;-145.97;100.00;64257.31;10495462;28;20055;-67
2024/02/27 01:43:26;;;;;;;11.63;3.85;;;;;;;-145.97;100.00;64257.31;10493424;28;20050;-67
2024/02/27 01:48:27;;;;;;;7.55;4.10;;;;;;;-145.97;100.00;64257.31;10494410;28;20133;-67
2024/02/27 01:53:28;;;;;;;9.73;3.70;;;;;;;-145.97;100.00;64257.31;10492224;28;20102;-68
2024/02/27 01:58:28;;;;;;;4.88;4.20;;;;;;;-145.97;100.00;64257.31;10492763;28;20088;-67
2024/02/27 02:03:30;;;;;;;5.00;4.50;;;;;;;-145.97;100.00;64257.31;10492671;28;20102;-68
2024/02/27 02:08:30;;;;;;;6.53;4.00;;;;;;;-145.97;100.00;64257.31;10493020;28;20028;-68
2024/02/27 02:13:31;;;;;;;4.60;4.25;;;;;;;-145.97;100.00;64257.31;10475646;28;20396;-68
2024/02/27 02:18:31;;;;;;;2.85;2.65;;;;;;;-145.97;100.00;64257.31;10492306;28;20029;-68
2024/02/27 02:23:32;;;;;;;9.23;4.05;;;;;;;-145.97;100.00;64257.31;10492361;28;20124;-67
2024/02/27 02:28:32;;;;;;;8.38;4.15;;;;;;;-145.97;100.00;64257.31;10475231;28;20044;-68
2024/02/27 02:33:33;;;;;;;3.65;3.30;;;;;;;-145.97;100.00;64257.31;10474558;28;20037;-67
2024/02/27 02:38:33;;;;;;;3.63;3.33;;;;;;;-145.97;100.00;64257.31;10491529;28;20040;-68
2024/02/27 02:43:33;;;;;;;3.28;2.83;;;;;;;-145.97;100.00;64257.31;10491893;28;20123;-66
2024/02/27 02:48:36;;;;;;;5.82;3.42;;;;;;;-145.97;100.00;64257.31;10492252;28;20412;-67
2024/02/27 02:53:36;;;;;;;3.33;2.80;;;;;;;-145.97;100.00;64257.31;10473848;28;20061;-69
2024/02/27 02:58:36;;;;;;;4.93;4.53;;;;;;;-145.97;100.00;64257.31;10492484;28;20131;-67
2024/02/27 03:03:37;;;;;;;3.67;3.38;;;;;;;-145.97;100.00;64257.31;10490624;28;20033;-67
2024/02/27 03:08:37;;;;;;;10.00;3.38;;;;;;;-145.97;100.00;64257.31;10491688;28;20043;-68
2024/02/27 03:13:38;;;;;;;11.82;3.30;;;;;;;-145.97;100.00;64257.31;10491428;28;20118;-68
2024/02/27 03:18:38;;;;;;;3.10;2.85;;;;;;;-145.97;100.00;64257.31;10491520;28;20076;-67
2024/02/27 03:23:40;;;;;;;10.95;4.35;;;;;;;-145.97;100.00;64257.31;10491244;28;20056;-67
2024/02/27 03:28:40;;;;;;;15.07;3.67;;;;;;;3.56;100.00;101473.78;10490123;28;20480;-67
2024/02/27 03:33:40;;;;;;;10.73;3.40;;;;;;;2.26;100.00;101875.81;10491465;28;20033;-67
2024/02/27 03:38:44;;;;;;;4.22;3.83;;;;;;;-145.97;100.00;64257.31;10491770;28;20478;-68
2024/02/27 03:43:44;;;;;;;8.77;2.90;;;;;;;-145.97;100.00;64257.31;10492676;28;20047;-69
2024/02/27 03:48:45;;;;;;;9.05;3.45;;;;;;;-145.97;100.00;64257.31;10493556;28;20504;-67
2024/02/27 03:53:45;;;;;;;5.07;3.28;;;;;;;-145.97;100.00;64257.31;10490404;28;20079;-67
2024/02/27 03:58:48;;;;;;;2.85;2.63;;;;;;;-145.97;100.00;64257.31;10491132;28;20029;-67
2024/02/27 04:03:49;;;;;;;6.28;4.78;;;;;;;-145.97;100.00;64257.31;10489672;28;20435;-67
2024/02/27 04:08:49;;;;;;;8.23;3.38;;;;;;;-145.97;100.00;64257.31;10490638;28;20078;-67
2024/02/27 04:13:50;;;;;;;5.35;2.30;;;;;;;-145.97;100.00;64257.31;10472787;28;20045;-67
2024/02/27 04:18:50;;;;;;;7.28;3.20;;;;;;;-145.97;100.00;64257.31;10489170;28;20123;-67
2024/02/27 04:23:51;;;;;;;2.55;2.33;;;;;;;-145.97;100.00;64257.31;10488737;28;20036;-69
2024/02/27 04:28:51;;;;;;;4.03;3.17;;;;;;;-145.97;100.00;64257.31;10491849;28;20394;-68
2024/02/27 04:33:52;;;;;;;3.88;2.42;;;;;;;-145.97;100.00;64257.31;10496778;28;20128;-67
2024/02/27 04:38:53;;;;;;;8.10;3.60;;;;;;;-145.97;100.00;64257.31;10497680;28;20371;-67
2024/02/27 04:43:53;;;;;;;4.97;3.38;;;;;;;-145.97;100.00;64257.31;10495936;28;20033;-68
2024/02/27 04:48:54;;;;;;;4.78;3.15;;;;;;;-145.97;100.00;64257.31;10495789;28;20198;-67
2024/02/27 04:53:54;;;;;;;8.77;3.05;;;;;;;-145.97;100.00;64257.31;10494891;28;20041;-67
2024/02/27 04:58:54;;;;;;;3.38;3.05;;;;;;;-145.97;100.00;64257.31;10495098;28;20490;-67
2024/02/27 05:03:55;;;;;;;4.85;3.47;;;;;;;-145.97;100.00;64257.31;10496127;28;20058;-68
2024/02/27 05:08:55;;;;;;;4.85;3.38;;;;;;;-145.97;100.00;64257.31;10495207;28;20043;-67
2024/02/27 05:13:56;;;;;;;5.22;3.83;;;;;;;-145.97;100.00;64257.31;10495957;28;20032;-68
2024/02/27 05:18:56;;;;;;;3.83;3.25;;;;;;;-145.97;100.00;64257.31;10494305;28;20407;-67
2024/02/27 05:23:57;;;;;;;5.93;3.72;;;;;;;-145.97;100.00;64257.31;10495351;28;20369;-67
2024/02/27 05:28:58;;;;;;;13.90;4.00;;;;;;;-145.97;100.00;64257.31;10495386;28;20044;-67
2024/02/27 05:33:59;;;;;;;7.55;5.45;;;;;;;-145.97;100.00;64257.31;10495551;28;20037;-66
2024/02/27 05:38:59;;;;;;;6.28;4.97;;;;;;;-145.97;100.00;64257.31;10493245;28;20064;-67
2024/02/27 05:44:00;;;;;;;6.07;4.03;;;;;;;-145.97;100.00;64257.31;10493028;28;20041;-68
2024/02/27 05:49:00;;;;;;;15.70;3.85;;;;;;;-145.97;100.00;64257.31;10493590;28;20392;-67
2024/02/27 05:54:00;;;;;;;3.33;3.13;;;;;;;-145.97;100.00;64257.31;10405144;28;20091;-68
2024/02/27 05:59:01;;;;;;;7.03;4.60;;;;;;;-145.97;100.00;64257.31;10493457;28;20072;-68
2024/02/27 06:04:03;;;;;;;8.65;3.72;;;;;;;-145.97;100.00;64257.31;10492486;28;20064;-69
2024/02/27 06:09:07;;;;;;;8.18;4.72;;;;;;;-145.97;100.00;64257.31;10494057;28;20032;-67
2024/02/27 06:14:07;;;;;;;8.77;4.70;;;;;;;-145.97;100.00;64257.31;10419729;28;20048;-68
2024/02/27 06:19:09;;;;;;;12.52;5.47;;;;;;;-145.97;100.00;64257.31;10494426;28;20029;-67
2024/02/27 06:24:09;;;;;;;5.88;5.25;;;;;;;-145.97;100.00;64257.31;10492271;28;20071;-67
2024/02/27 06:29:10;;;;;;;11.13;6.47;;;;;;;-145.97;100.00;64257.31;10490730;28;20067;-67
2024/02/27 06:34:10;;;;;;;16.85;5.03;;;;;;;-145.97;100.00;64257.31;10491691;28;20115;-68
2024/02/27 06:39:11;;;;;;;9.10;5.47;;;;;;;-145.97;100.00;64257.31;10490783;28;20089;-67
2024/02/27 06:44:11;;;;;;;9.95;7.35;;;;;;;-145.97;100.00;64257.31;10491920;28;20490;-67
2024/02/27 06:49:11;;;;;;;8.80;6.13;;;;;;;-145.97;100.00;64257.31;10490590;28;20064;-67
2024/02/27 06:54:12;;;;;;;12.38;6.43;;;;;;;-145.97;100.00;64257.31;10472542;28;20144;-67
2024/02/27 06:59:12;;;;;;;10.68;6.97;;;;;;;-145.97;100.00;64257.31;10490266;28;20418;-67
2024/02/27 07:04:13;;;;;;;12.68;7.35;;;;;;;-145.97;100.00;64257.31;10490533;28;20032;-67
2024/02/27 07:09:13;;;;;;;13.73;7.22;;;;;;;-145.97;100.00;64257.31;10491318;28;20144;-68
2024/02/27 07:14:14;;;;;;;12.43;7.63;;;;;;;4.75;100.00;101897.38;10489831;28;20036;-67
2024/02/27 07:19:19;;;;;;;8.88;7.75;;;;;;;5.28;100.00;101896.28;10489775;28;20071;-67
2024/02/27 07:24:20;;;;;;;6.67;6.13;;;;;;;5.88;100.00;101901.56;10490874;28;20055;-68
2024/02/27 07:29:20;;;;;;;18.58;7.03;;;;;;;6.41;100.00;101925.28;10491383;28;20029;-68
2024/02/27 07:34:21;;;;;;;11.35;5.55;;;;;;;6.78;100.00;101929.88;10489386;28;20419;-67
2024/02/27 07:39:21;;;;;;;3.90;3.50;;;;;;;7.06;100.00;101934.28;10489417;28;20043;-67
2024/02/27 07:44:22;;;;;;;23.98;6.07;;;;;;;7.42;100.00;101932.50;10490681;28;20059;-69
2024/02/27 07:49:22;;;;;;;3.92;3.63;;;;;;;7.73;100.00;101920.53;10491156;28;20160;-68
2024/02/27 07:54:22;;;;;;;6.47;4.03;;;;;;;8.03;100.00;101912.03;10490028;28;20082;-69
2024/02/27 07:59:24;;;;;;;7.40;4.30;;;;;;;8.43;100.00;101912.53;10472428;28;20084;-67
2024/02/27 08:04:24;;;;;;;9.25;5.22;;;;;;;8.51;100.00;101910.72;10495141;28;20055;-69
2024/02/27 08:09:25;;;;;;;6.88;4.93;;;;;;;8.91;100.00;101909.28;10497611;28;20449;-69
2024/02/27 08:14:29;;;;;;;8.90;4.40;;;;;;;9.32;100.00;101901.31;10498122;28;20495;-68
2024/02/27 08:19:29;;;;;;;10.27;5.13;;;;;;;9.74;100.00;101901.22;10497573;28;20637;-69
2024/02/27 08:24:30;;;;;;;10.82;4.88;;;;;;;10.01;100.00;101910.84;10496531;28;20040;-68
2024/02/27 08:29:31;;;;;;;4.22;3.90;;;;;;;10.14;100.00;101918.47;10498115;28;20056;-69
2024/02/27 08:34:32;;;;;;;6.75;4.65;;;;;;;10.60;100.00;101924.22;10497577;28;20060;-69
2024/02/27 08:39:33;;;;;;;7.60;5.82;;;;;;;10.66;100.00;101923.53;10479929;28;20032;-68
2024/02/27 08:44:33;;;;;;;4.18;3.80;;;;;;;10.98;100.00;101926.31;10496324;28;20041;-68
2024/02/27 08:49:33;;;;;;;5.22;4.20;;;;;;;11.17;100.00;101926.75;10497054;28;20041;-69
2024/02/27 08:54:34;;;;;;;5.22;4.43;;;;;;;11.52;100.00;101921.81;10478868;28;20047;-69
2024/02/27 08:59:34;;;;;;;5.40;4.65;;;;;;;11.66;100.00;101924.78;10497530;28;20067;-68
2024/02/27 09:04:35;;;;;;;9.73;5.00;;;;;;;11.56;100.00;101933.16;10496034;28;20033;-69
2024/02/27 09:09:36;;;;;;;7.68;4.57;;;;;;;11.72;100.00;101935.75;10496661;28;20041;-69
2024/02/27 09:14:37;;;;;;;5.90;4.57;;;;;;;11.62;100.00;101935.16;10495346;28;20033;-68
2024/02/27 09:19:37;;;;;;;8.48;4.15;;;;;;;11.80;100.00;101957.38;10477672;28;20033;-68
2024/02/27 09:24:38;;;;;;;5.10;3.22;;;;;;;11.72;100.00;101954.75;10495864;28;20271;-68
2024/02/27 09:29:38;;;;;;;5.00;4.60;;;;;;;11.50;100.00;101960.97;10494508;28;20438;-69
2024/02/27 09:34:41;;;;;;;8.40;5.32;;;;;;;11.63;100.00;101953.94;10494943;28;20494;-67
2024/02/27 09:39:41;;;;;;;5.15;3.65;;;;;;;12.23;100.00;101946.94;10494592;28;20029;-69
2024/02/27 09:44:42;;;;;;;4.55;4.15;;;;;;;12.52;100.00;101945.31;10494394;28;20470;-68
2024/02/27 09:49:43;;;;;;;7.00;4.30;;;;;;;12.45;91.78;101936.22;10492855;28;20482;-68
2024/02/27 09:54:43;;;;;;;3.67;3.45;;;;;;;12.41;73.99;101937.59;10477070;28;20060;-67
2024/02/27 09:59:46;;;;;;;4.32;3.92;;;;;;;13.03;93.12;101919.09;10493430;28;20036;-68
2024/02/27 10:04:46;;;;;;;5.32;4.82;;;;;;;13.31;83.37;101923.88;10494688;28;20028;-69
2024/02/27 10:09:47;;;;;;;7.43;4.53;;;;;;;13.25;100.00;101922.75;10494408;28;20029;-70
2024/02/27 10:14:47;;;;;;;8.18;4.80;;;;;;;12.86;79.09;101922.19;10493471;28;20032;-69
2024/02/27 10:19:48;;;;;;;4.93;4.53;;;;;;;11.74;80.09;101912.00;10494049;28;20512;-69
2024/02/27 10:25:16;;;;;;;7.60;4.82;;;;;;;12.54;84.82;101913.38;10492374;28;20036;-67
2024/02/27 10:30:17;;;;;;;4.85;4.15;;;;;;;13.01;80.05;101909.44;10493032;28;20039;-69
2024/02/27 10:35:17;;;;;;;5.18;4.70;;;;;;;12.62;73.52;101921.44;10493496;28;20387;-69
2024/02/27 10:40:19;;;;;;;5.13;4.72;;;;;;;12.36;71.21;101923.75;10493064;28;20036;-68
2024/02/27 10:45:19;;;;;;;7.10;4.10;;;;;;;11.61;82.20;101919.88;10507853;28;20395;-71
2024/02/27 10:50:20;;;;;;;7.28;4.78;;;;;;;12.24;81.89;101920.63;10489826;28;20128;-70
2024/02/27 10:55:22;;;;;;;6.55;5.20;;;;;;;12.34;78.50;101918.47;10475009;28;20130;-70
2024/02/27 11:00:22;;;;;;;5.20;4.50;;;;;;;-145.97;100.00;64257.31;10490949;28;20047;-68
2024/02/27 11:05:27;;;;;;;5.32;4.75;;;;;;;-145.97;100.00;64257.31;10492687;28;20560;-69
2024/02/27 11:10:29;;;;;;;5.78;4.65;;;;;;;-145.97;100.00;64257.31;10475902;28;20042;-70
2024/02/27 11:15:30;;;;;;;6.60;5.18;;;;;;;-145.97;100.00;64257.31;10474599;28;20029;-69
2024/02/27 11:20:30;;;;;;;4.05;3.70;;;;;;;-145.97;100.00;64257.31;10489672;28;20094;-69
2024/02/27 11:25:32;;;;;;;4.00;3.70;;;;;;;-145.97;100.00;64257.31;10473003;28;20122;-69
2024/02/27 11:30:34;;;;;;;3.42;3.15;;;;;;;-145.97;100.00;64257.31;10473183;28;20123;-68
2024/02/27 11:35:34;;;;;;;4.43;4.03;;;;;;;-145.97;100.00;64257.31;10491095;28;20544;-69
2024/02/27 11:40:48;;;;;;;4.80;4.03;;;;;;;-145.97;100.00;64257.31;10498991;28;20097;-67
2024/02/27 11:45:48;;;;;;;4.55;4.07;;;;;;;-145.97;100.00;64257.31;10481623;28;20083;-69
2024/02/27 11:50:49;;;;;;;8.32;3.53;;;;;;;-145.97;100.00;64257.31;10497559;28;20053;-71
2024/02/27 11:55:50;;;;;;;4.35;3.92;;;;;;;-145.97;100.00;64257.31;10498604;28;20062;-69
2024/02/27 12:00:51;;;;;;;4.00;3.60;;;;;;;-145.97;100.00;64257.31;10497134;28;20048;-69
2024/02/27 12:05:59;;;;;;;4.35;3.22;;;;;;;-145.97;100.00;64257.31;10480509;28;20112;-68
2024/02/27 12:11:00;;;;;;;4.07;3.78;;;;;;;-145.97;100.00;64257.31;10497011;28;20758;-69
2024/02/27 12:16:00;;;;;;;5.20;4.80;;;;;;;-145.97;100.00;64257.31;10480280;28;20036;-70
2024/02/27 12:21:01;;;;;;;5.60;3.05;;;;;;;-145.97;100.00;64257.31;10496058;28;20110;-71
2024/02/27 12:26:02;;;;;;;4.30;3.50;;;;;;;-145.97;100.00;64257.31;10479267;28;20511;-68
2024/02/27 12:31:03;;;;;;;3.10;2.83;;;;;;;-145.97;100.00;64257.31;10496182;28;20025;-68
2024/02/27 12:36:04;;;;;;;3.50;2.78;;;;;;;-145.97;100.00;64257.31;10479009;28;20032;-68
2024/02/27 12:41:04;;;;;;;4.07;3.65;;;;;;;-145.97;100.00;64257.31;10497279;28;20045;-68
2024/02/27 12:46:05;;;;;;;5.03;2.60;;;;;;;-145.97;100.00;64257.31;10497158;28;20058;-68
2024/02/27 12:51:05;;;;;;;3.17;2.88;;;;;;;-145.97;100.00;64257.31;10476967;28;20110;-69
2024/02/27 12:56:06;;;;;;;22.67;3.22;;;;;;;-145.97;100.00;64257.31;10494863;28;20070;-69
2024/02/27 13:01:09;;;;;;;4.50;3.30;;;;;;;-145.97;100.00;64257.31;10495542;28;20048;-68
2024/02/27 13:06:11;;;;;;;6.95;2.97;;;;;;;-145.97;100.00;64257.31;10496167;28;20041;-69
2024/02/27 13:11:11;;;;;;;3.20;2.63;;;;;;;-145.97;100.00;64257.31;10496450;28;20048;-69
2024/02/27 13:16:14;;;;;;;3.38;3.10;;;;;;;-145.97;100.00;64257.31;10494698;28;20124;-68
2024/02/27 13:21:18;;;;;;;3.20;3.00;;;;;;;-145.97;100.00;64257.31;10495955;28;20054;-68
2024/02/27 13:26:19;;;;;;;4.70;3.63;;;;;;;-145.97;100.00;64257.31;10494939;28;20110;-70
2024/02/27 13:31:20;;;;;;;2.25;2.15;;;;;;;-145.97;100.00;64257.31;10495940;28;20089;-68
2024/02/27 13:36:20;;;;;;;3.08;2.15;;;;;;;-145.97;100.00;64257.31;10479299;28;20040;-70
2024/02/27 13:41:22;;;;;;;3.10;2.95;;;;;;;-145.97;100.00;64257.31;10496329;28;20114;-68
2024/02/27 13:46:23;;;;;;;3.80;2.80;;;;;;;-145.97;100.00;64257.31;10496909;28;20036;-68
2024/02/27 13:51:23;;;;;;;4.15;3.05;;;;;;;-145.97;100.00;64257.31;10493661;28;20539;-69
2024/02/27 13:56:24;;;;;;;6.68;3.60;;;;;;;-145.97;100.00;64257.31;10494271;28;20051;-68
2024/02/27 14:01:24;;;;;;;3.08;2.33;;;;;;;-145.97;100.00;64257.31;10492732;28;20035;-69
2024/02/27 14:06:24;;;;;;;3.88;2.63;;;;;;;-145.97;100.00;64257.31;10494067;28;20132;-69
2024/02/27 14:11:25;;;;;;;3.58;2.53;;;;;;;-145.97;100.00;64257.31;10493665;28;20036;-69
2024/02/27 14:16:26;;;;;;;3.25;2.38;;;;;;;-145.97;100.00;64257.31;10458570;28;20060;-70
2024/02/27 14:21:27;;;;;;;1.98;1.85;;;;;;;-145.97;100.00;64257.31;10475158;28;20032;-69
2024/02/27 14:26:29;;;;;;;7.95;3.05;;;;;;;-145.97;100.00;64257.31;10491563;28;20477;-70
2024/02/27 14:31:31;;;;;;;2.40;2.20;;;;;;;-145.97;100.00;64257.31;10492515;28;20133;-69
2024/02/27 14:36:34;;;;;;;3.78;2.47;;;;;;;-145.97;100.00;64257.31;10492605;28;20095;-68
2024/02/27 14:41:34;;;;;;;2.45;2.35;;;;;;;-145.97;100.00;64257.31;10490861;28;20029;-68
2024/02/27 14:46:34;;;;;;;3.17;2.83;;;;;;;-145.97;100.00;64257.31;10474830;28;20464;-68
2024/02/27 14:51:39;;;;;;;3.30;3.05;;;;;;;-145.97;100.00;64257.31;10490311;28;20047;-69
2024/02/27 14:56:39;;;;;;;2.40;2.30;;;;;;;-145.97;100.00;64257.31;10492589;28;20037;-68
2024/02/27 15:01:39;;;;;;;3.13;2.83;;;;;;;-145.97;100.00;64257.31;10490323;28;20036;-69
2024/02/27 15:06:41;;;;;;;2.47;2.10;;;;;;;-145.97;100.00;64257.31;10490302;28;20029;-68
2024/02/27 15:11:41;;;;;;;2.75;2.55;;;;;;;-145.97;100.00;64257.31;10489688;28;20115;-69
2024/02/27 15:16:42;;;;;;;3.35;2.95;;;;;;;-145.97;100.00;64257.31;10491448;28;20078;-68
2024/02/27 15:21:42;;;;;;;3.95;2.60;;;;;;;-145.97;100.00;64257.31;10472963;28;20128;-70
2024/02/27 15:26:43;;;;;;;4.32;2.70;;;;;;;-145.97;100.00;64257.31;10457458;28;20131;-68
2024/02/27 15:31:43;;;;;;;3.85;3.55;;;;;;;-145.97;100.00;64257.31;10456636;28;20444;-68
2024/02/27 15:36:44;;;;;;;3.88;3.05;;;;;;;-145.97;100.00;64257.31;10490287;28;20040;-68
2024/02/27 15:41:44;;;;;;;10.38;3.03;;;;;;;9.12;100.00;101803.44;10474164;28;20035;-68
2024/02/27 15:46:46;;;;;;;7.28;3.70;;;;;;;9.05;100.00;101802.44;10489849;28;20065;-70
2024/02/27 15:51:47;;;;;;;4.28;2.90;;;;;;;8.83;100.00;101803.88;10490380;28;20123;-70
2024/02/27 15:56:47;;;;;;;2.83;2.63;;;;;;;8.58;100.00;101803.81;10472647;28;20579;-68
2024/02/27 16:01:48;;;;;;;3.05;2.60;;;;;;;8.29;100.00;101808.69;10489650;28;20044;-68
2024/02/27 16:06:55;;;;;;;3.80;3.08;;;;;;;7.99;100.00;101805.47;10473538;28;20075;-69
2024/02/27 16:11:56;;;;;;;4.00;2.40;;;;;;;7.80;100.00;101813.75;10475467;28;20025;-68
2024/02/27 16:16:56;;;;;;;2.97;2.45;;;;;;;7.61;100.00;101806.69;10490039;28;20033;-68
2024/02/27 16:22:03;;;;;;;3.30;2.80;;;;;;;7.33;100.00;101798.69;10490627;28;20041;-69
2024/02/27 16:27:05;;;;;;;4.90;3.15;;;;;;;7.19;100.00;101828.88;10497949;28;20036;-68
2024/02/27 16:32:05;;;;;;;3.67;3.00;;;;;;;7.02;100.00;101825.19;10496395;28;20024;-67
2024/02/27 16:37:06;;;;;;;2.50;2.30;;;;;;;6.92;100.00;101832.44;10479494;28;20116;-70
2024/02/27 16:42:09;;;;;;;3.42;2.42;;;;;;;6.78;100.00;101831.09;10496753;28;20040;-68
2024/02/27 16:47:09;;;;;;;6.32;2.03;;;;;;;6.64;100.00;101829.78;10495716;28;20499;-68
2024/02/27 16:52:10;;;;;;;2.92;2.03;;;;;;;6.50;100.00;101814.94;10478275;28;20059;-68
2024/02/27 16:57:10;;;;;;;3.80;2.55;;;;;;;6.43;100.00;101815.69;10495501;28;20085;-68
2024/02/27 17:02:11;;;;;;;3.47;1.73;;;;;;;6.33;100.00;101821.13;10497489;28;20040;-68
2024/02/27 17:07:11;;;;;;;3.75;3.45;;;;;;;6.28;100.00;101824.22;10496503;28;20028;-68
2024/02/27 17:12:11;;;;;;;1.77;1.67;;;;;;;6.17;100.00;101816.34;10496255;28;20041;-67
2024/02/27 17:17:13;;;;;;;3.80;2.65;;;;;;;6.15;100.00;101833.63;10494544;28;20123;-69
2024/02/27 17:22:13;;;;;;;3.33;3.13;;;;;;;6.07;100.00;101847.81;10494006;28;20075;-69
2024/02/27 17:27:14;;;;;;;5.28;2.83;;;;;;;6.00;100.00;101842.16;10494334;28;20444;-68
2024/02/27 17:32:16;;;;;;;2.42;2.00;;;;;;;5.95;100.00;101846.28;10495497;28;20040;-68
2024/02/27 17:37:16;;;;;;;8.55;2.22;;;;;;;5.81;100.00;101834.94;10494399;28;20028;-68
2024/02/27 17:42:17;;;;;;;2.55;2.35;;;;;;;5.77;100.00;101846.09;10477430;28;20033;-68
2024/02/27 17:47:17;;;;;;;11.00;2.75;;;;;;;5.70;100.00;101856.56;10493901;28;20093;-69
2024/02/27 17:52:20;;;;;;;6.47;2.03;;;;;;;5.64;100.00;101859.81;10494652;28;20111;-68
2024/02/27 17:57:20;;;;;;;5.65;3.92;;;;;;;5.50;100.00;101852.22;10476566;28;20495;-68
2024/02/27 18:02:20;;;;;;;6.43;3.72;;;;;;;5.56;100.00;101867.78;10494045;28;20063;-67
2024/02/27 18:07:21;;;;;;;6.07;3.53;;;;;;;5.50;100.00;101868.31;10493338;28;20758;-70
2024/02/27 18:12:21;;;;;;;10.25;5.95;;;;;;;5.48;100.00;101859.53;10494058;28;20154;-68
2024/02/27 18:17:23;;;;;;;2.97;2.33;;;;;;;5.44;100.00;101863.50;10493501;28;20072;-68
2024/02/27 18:22:23;;;;;;;6.60;3.03;;;;;;;5.33;100.00;101849.22;10493087;28;20043;-69
2024/02/27 18:27:26;;;;;;;4.07;3.20;;;;;;;5.39;100.00;101863.06;10493635;28;20028;-68
2024/02/27 18:32:29;;;;;;;3.03;2.75;;;;;;;5.34;100.00;101869.72;10494125;28;20189;-70
2024/02/27 18:37:30;;;;;;;3.33;2.83;;;;;;;5.33;100.00;101881.47;10494531;28;20032;-70
2024/02/27 18:42:30;;;;;;;4.18;3.10;;;;;;;5.35;100.00;101884.00;10492681;28;20056;-68
2024/02/27 18:47:31;;;;;;;6.88;4.25;;;;;;;5.38;100.00;101883.72;10491970;28;20094;-68
2024/02/27 18:52:31;;;;;;;7.05;3.53;;;;;;;5.36;100.00;101877.66;10491495;28;20076;-69
2024/02/27 18:57:32;;;;;;;5.22;2.95;;;;;;;5.28;100.00;101875.66;10491303;28;20037;-68
2024/02/27 19:02:32;;;;;;;6.63;3.63;;;;;;;5.22;100.00;101873.50;10492069;28;20468;-68
2024/02/27 19:07:33;;;;;;;5.45;3.85;;;;;;;5.19;100.00;101884.53;10492249;28;20031;-68
2024/02/27 19:12:34;;;;;;;5.20;4.10;;;;;;;5.13;100.00;101890.44;10491662;28;20041;-69
2024/02/27 19:17:34;;;;;;;8.65;4.13;;;;;;;5.03;100.00;101882.38;10474499;28;20115;-68
2024/02/27 19:22:34;;;;;;;5.43;3.92;;;;;;;4.88;100.00;101898.03;10490530;28;20063;-68
2024/02/27 19:27:35;;;;;;;6.35;4.25;;;;;;;4.74;100.00;101906.44;10490045;28;20040;-68
2024/02/27 19:32:36;;;;;;;4.40;4.00;;;;;;;4.67;100.00;101899.91;10473313;28;20052;-67
2024/02/27 19:37:36;;;;;;;10.75;4.93;;;;;;;4.53;100.00;101916.34;10490684;28;20478;-69
2024/02/27 19:42:37;;;;;;;4.57;4.13;;;;;;;4.46;100.00;101923.22;10491038;28;20048;-69
2024/02/27 19:47:37;;;;;;;5.65;4.35;;;;;;;4.51;100.00;101912.97;10457751;28;20491;-69
2024/02/27 19:52:39;;;;;;;4.35;3.95;;;;;;;4.57;100.00;101925.84;10488766;28;20084;-67
2024/02/27 19:57:39;;;;;;;9.15;4.55;;;;;;;4.63;100.00;101930.69;10473775;28;20036;-70
2024/02/27 20:02:40;;;;;;;5.47;4.68;;;;;;;4.61;100.00;101935.31;10480691;28;20195;-69
2024/02/27 20:07:40;;;;;;;9.25;4.93;;;;;;;4.49;100.00;101928.31;10496724;28;20094;-69
2024/02/27 20:12:41;;;;;;;7.22;5.22;;;;;;;4.42;100.00;101933.38;10513585;28;20037;-69
2024/02/27 20:17:41;;;;;;;9.50;6.18;;;;;;;4.39;100.00;101928.28;10497748;28;20044;-69
2024/02/27 20:22:42;;;;;;;7.20;5.03;;;;;;;4.58;100.00;101923.00;10495467;28;20056;-69
2024/02/27 20:27:43;;;;;;;9.18;5.10;;;;;;;4.59;100.00;101924.69;10479149;28;20067;-69
2024/02/27 20:32:43;;;;;;;11.60;6.20;;;;;;;4.42;100.00;101938.75;10497775;28;20147;-69
2024/02/27 20:37:43;;;;;;;6.43;5.05;;;;;;;4.18;100.00;101945.22;10496627;28;20068;-69
2024/02/27 20:42:44;;;;;;;5.80;5.30;;;;;;;4.08;100.00;101951.47;10496426;28;20060;-68
2024/02/27 20:47:45;;;;;;;6.45;5.70;;;;;;;4.08;100.00;101941.59;10496815;28;20040;-68
2024/02/27 20:52:45;;;;;;;13.05;6.78;;;;;;;4.19;100.00;101954.97;10494819;28;20067;-70
2024/02/27 20:57:45;;;;;;;12.32;7.00;;;;;;;4.39;100.00;101944.38;10496617;28;20043;-70
2024/02/27 21:02:46;;;;;;;10.98;7.38;;;;;;;4.63;100.00;101941.41;10424437;28;21174;-70
2024/02/27 21:07:47;;;;;;;7.35;5.43;;;;;;;4.85;100.00;101948.41;10465626;28;20032;-70
2024/02/27 21:12:47;;;;;;;6.53;5.93;;;;;;;4.96;100.00;101956.38;10495636;28;20077;-70
2024/02/27 21:17:48;;;;;;;9.05;6.18;;;;;;;5.03;100.00;101944.13;10488705;28;20453;-69
2024/02/27 21:22:48;;;;;;;8.68;6.38;;;;;;;5.19;100.00;101957.03;10454766;28;20100;-71
2024/02/27 21:27:52;;;;;;;5.35;4.85;;;;;;;5.26;100.00;101955.50;10454682;28;20052;-69
2024/02/27 21:32:52;;;;;;;8.23;5.38;;;;;;;5.29;100.00;101962.44;10454484;28;20041;-70
2024/02/27 21:37:53;;;;;;;8.43;5.88;;;;;;;5.35;100.00;101960.03;10452370;28;20389;-69
2024/02/27 21:42:53;;;;;;;13.00;5.57;;;;;;;5.42;100.00;101956.81;10453824;28;20060;-68
2024/02/27 21:47:56;;;;;;;19.95;6.75;;;;;;;5.44;100.00;101952.16;10435382;28;20033;-68
2024/02/27 21:52:57;;;;;;;8.50;6.03;;;;;;;5.47;100.00;101950.03;10452707;28;20045;-70
2024/02/27 21:57:57;;;;;;;7.90;5.45;;;;;;;5.48;100.00;101946.34;10452178;28;20804;-69
2024/02/27 22:02:58;;;;;;;10.07;6.10;;;;;;;5.45;100.00;101946.63;10452516;28;20040;-70
2024/02/27 22:08:01;;;;;;;13.88;5.32;;;;;;;5.40;100.00;101935.47;10452770;28;20397;-69
2024/02/27 22:13:01;;;;;;;10.73;6.88;;;;;;;5.42;100.00;101959.50;10452714;28;20040;-70
2024/02/27 22:18:03;;;;;;;6.93;5.68;;;;;;;5.44;100.00;101952.16;10452413;28;20357;-68
2024/02/27 22:23:04;;;;;;;6.90;5.10;;;;;;;5.35;100.00;101929.66;10450358;28;20113;-68
2024/02/27 22:28:04;;;;;;;6.93;5.47;;;;;;;5.45;100.00;101941.25;10452025;28;20469;-69
2024/02/27 22:33:09;;;;;;;6.13;4.20;;;;;;;5.43;100.00;101935.19;10451370;28;20589;-68
2024/02/27 22:38:10;;;;;;;8.35;6.00;;;;;;;5.55;100.00;101950.22;10451513;28;20035;-69
2024/02/27 22:43:10;;;;;;;11.10;4.97;;;;;;;5.51;100.00;101937.19;10451244;28;20041;-69